createdAt,value
2022-11-13T00:00:29.364Z,8.60
2022-11-13T00:01:29.371Z,8.56
2022-11-13T00:02:29.405Z,8.49
2022-11-13T00:03:29.376Z,8.53
2022-11-13T00:04:29.373Z,8.42
2022-11-13T00:05:29.376Z,8.46
2022-11-13T00:06:29.386Z,8.44
2022-11-13T00:07:29.426Z,8.42
2022-11-13T00:08:29.875Z,8.34
2022-11-13T00:09:29.390Z,8.30
2022-11-13T00:10:29.395Z,8.26
2022-11-13T00:11:29.512Z,8.24
2022-11-13T00:12:29.402Z,8.12
2022-11-13T00:13:30.605Z,8.13
2022-11-13T00:14:29.415Z,8.13
2022-11-13T00:15:29.417Z,8.05
2022-11-13T00:16:29.419Z,8.05
2022-11-13T00:17:29.417Z,8.05
2022-11-13T00:18:29.862Z,8.15
2022-11-13T00:19:29.424Z,8.12
2022-11-13T00:20:29.436Z,8.18
2022-11-13T00:21:29.437Z,8.13
2022-11-13T00:22:29.442Z,8.09
2022-11-13T00:23:29.444Z,8.18
2022-11-13T00:24:29.448Z,8.13
2022-11-13T00:25:29.444Z,8.08
2022-11-13T00:26:29.455Z,8.01
2022-11-13T00:27:29.564Z,8.03
2022-11-13T00:28:29.831Z,8.00
2022-11-13T00:29:29.464Z,8.05
2022-11-13T00:30:29.466Z,8.03
2022-11-13T00:31:29.464Z,8.00
2022-11-13T00:32:29.467Z,8.00
2022-11-13T00:33:54.850Z,8.00
2022-11-13T00:34:59.411Z,8.06
2022-11-13T00:35:29.482Z,8.00
2022-11-13T00:36:29.488Z,8.15
2022-11-13T00:37:29.489Z,8.13
2022-11-13T00:38:29.834Z,8.12
2022-11-13T00:39:29.495Z,8.20
2022-11-13T00:40:29.499Z,8.24
2022-11-13T00:41:29.502Z,8.24
2022-11-13T00:42:29.500Z,8.24
2022-11-13T00:43:29.622Z,8.31
2022-11-13T00:44:29.509Z,8.31
2022-11-13T00:45:29.516Z,8.27
2022-11-13T00:46:29.518Z,8.26
2022-11-13T00:47:29.523Z,8.27
2022-11-13T00:48:29.905Z,8.27
2022-11-13T00:49:29.530Z,8.24
2022-11-13T00:50:29.524Z,8.24
2022-11-13T00:51:29.537Z,8.16
2022-11-13T00:52:29.536Z,8.20
2022-11-13T00:53:29.543Z,8.27
2022-11-13T00:54:29.537Z,8.16
2022-11-13T00:55:29.542Z,8.19
2022-11-13T00:56:29.553Z,8.23
2022-11-13T00:57:29.557Z,8.20
2022-11-13T00:58:29.987Z,8.16
2022-11-13T00:59:29.668Z,8.16
2022-11-13T01:00:29.564Z,8.20
2022-11-13T01:01:29.653Z,8.23
2022-11-13T01:02:29.570Z,8.18
2022-11-13T01:03:29.567Z,8.18
2022-11-13T01:04:29.574Z,8.24
2022-11-13T01:05:29.580Z,8.20
2022-11-13T01:06:29.596Z,8.20
2022-11-13T01:07:29.586Z,8.26
2022-11-13T01:08:29.974Z,8.24
2022-11-13T01:09:29.587Z,8.23
2022-11-13T01:10:29.593Z,8.26
2022-11-13T01:11:29.594Z,8.26
2022-11-13T01:12:29.606Z,8.23
2022-11-13T01:13:29.601Z,8.16
2022-11-13T01:14:29.602Z,8.18
2022-11-13T01:15:29.728Z,8.18
2022-11-13T01:16:29.609Z,8.27
2022-11-13T01:17:29.615Z,8.24
2022-11-13T01:18:29.915Z,8.23
2022-11-13T01:19:29.628Z,8.24
2022-11-13T01:20:29.622Z,8.26
2022-11-13T01:21:29.636Z,8.24
2022-11-13T01:22:29.628Z,8.18
2022-11-13T01:23:29.642Z,8.24
2022-11-13T01:24:29.642Z,8.19
2022-11-13T01:25:29.650Z,8.18
2022-11-13T01:26:29.644Z,8.19
2022-11-13T01:27:29.646Z,8.26
2022-11-13T01:28:29.901Z,8.24
2022-11-13T01:29:29.660Z,8.19
2022-11-13T01:30:29.655Z,8.16
2022-11-13T01:31:29.787Z,8.13
2022-11-13T01:32:29.663Z,8.16
2022-11-13T01:33:29.669Z,8.13
2022-11-13T01:34:29.675Z,8.12
2022-11-13T01:35:29.669Z,8.15
2022-11-13T01:36:29.691Z,8.05
2022-11-13T01:37:29.684Z,8.01
2022-11-13T01:38:33.160Z,8.01
2022-11-13T01:39:29.683Z,8.00
2022-11-13T01:40:29.686Z,7.97
2022-11-13T01:41:29.695Z,7.98
2022-11-13T01:42:29.700Z,8.01
2022-11-13T01:43:29.702Z,7.98
2022-11-13T01:44:29.707Z,8.01
2022-11-13T01:45:29.707Z,8.10
2022-11-13T01:46:29.704Z,7.95
2022-11-13T01:47:29.826Z,8.03
2022-11-13T01:48:29.974Z,8.08
2022-11-13T01:49:29.722Z,7.91
2022-11-13T01:50:29.724Z,8.00
2022-11-13T01:51:29.721Z,7.93
2022-11-13T01:52:29.724Z,7.88
2022-11-13T01:53:29.727Z,7.88
2022-11-13T01:54:29.728Z,7.98
2022-11-13T01:55:29.740Z,7.90
2022-11-13T01:56:29.735Z,7.98
2022-11-13T01:57:29.747Z,7.95
2022-11-13T01:58:30.068Z,7.91
2022-11-13T01:59:29.747Z,7.87
2022-11-13T02:00:29.747Z,7.97
2022-11-13T02:01:29.813Z,7.97
2022-11-13T02:02:29.754Z,7.90
2022-11-13T02:03:29.868Z,7.91
2022-11-13T02:04:29.760Z,7.85
2022-11-13T02:05:29.769Z,7.77
2022-11-13T02:06:29.772Z,7.85
2022-11-13T02:07:29.767Z,7.77
2022-11-13T02:08:30.271Z,7.82
2022-11-13T02:09:29.773Z,7.85
2022-11-13T02:10:29.779Z,7.87
2022-11-13T02:11:29.779Z,7.87
2022-11-13T02:12:29.791Z,7.87
2022-11-13T02:13:29.799Z,7.90
2022-11-13T02:14:29.789Z,7.83
2022-11-13T02:15:29.791Z,7.90
2022-11-13T02:16:29.796Z,7.94
2022-11-13T02:17:29.804Z,7.85
2022-11-13T02:18:30.241Z,8.00
2022-11-13T02:19:29.926Z,7.90
2022-11-13T02:20:29.806Z,7.94
2022-11-13T02:21:29.817Z,7.88
2022-11-13T02:22:29.811Z,7.91
2022-11-13T02:23:29.816Z,7.82
2022-11-13T02:24:31.753Z,7.87
2022-11-13T02:25:29.829Z,7.91
2022-11-13T02:26:29.831Z,7.90
2022-11-13T02:27:29.830Z,7.87
2022-11-13T02:28:30.377Z,7.87
2022-11-13T02:29:29.834Z,7.85
2022-11-13T02:30:29.843Z,7.88
2022-11-13T02:31:29.846Z,7.87
2022-11-13T02:32:29.853Z,7.98
2022-11-13T02:33:29.857Z,7.82
2022-11-13T02:34:29.846Z,8.00
2022-11-13T02:35:29.965Z,7.91
2022-11-13T02:36:29.853Z,7.90
2022-11-13T02:37:29.864Z,7.90
2022-11-13T02:38:30.191Z,7.90
2022-11-13T02:39:29.859Z,7.94
2022-11-13T02:40:29.879Z,7.93
2022-11-13T02:41:29.874Z,7.87
2022-11-13T02:42:29.876Z,7.88
2022-11-13T02:43:29.888Z,7.88
2022-11-13T02:44:29.876Z,7.88
2022-11-13T02:45:29.885Z,7.90
2022-11-13T02:46:29.882Z,7.87
2022-11-13T02:47:29.890Z,7.82
2022-11-13T02:48:30.166Z,7.75
2022-11-13T02:49:29.898Z,7.75
2022-11-13T02:50:29.892Z,7.73
2022-11-13T02:51:30.013Z,7.66
2022-11-13T02:52:29.942Z,7.58
2022-11-13T02:53:29.901Z,7.60
2022-11-13T02:54:29.912Z,7.57
2022-11-13T02:55:29.915Z,7.56
2022-11-13T02:56:29.916Z,7.57
2022-11-13T02:57:29.914Z,7.39
2022-11-13T02:58:30.460Z,7.45
2022-11-13T02:59:29.919Z,7.33
2022-11-13T03:00:29.922Z,7.36
2022-11-13T03:01:30.092Z,7.36
2022-11-13T03:02:29.934Z,7.38
2022-11-13T03:03:56.548Z,7.24
2022-11-13T03:04:50.232Z,7.23
2022-11-13T03:05:29.938Z,7.15
2022-11-13T03:06:29.946Z,7.20
2022-11-13T03:07:30.068Z,7.14
2022-11-13T03:08:30.927Z,7.10
2022-11-13T03:09:29.960Z,7.06
2022-11-13T03:10:29.956Z,7.05
2022-11-13T03:11:29.964Z,7.00
2022-11-13T03:12:29.963Z,6.99
2022-11-13T03:13:29.961Z,6.95
2022-11-13T03:14:29.970Z,6.89
2022-11-13T03:15:29.970Z,6.88
2022-11-13T03:16:29.966Z,6.95
2022-11-13T03:17:29.976Z,6.84
2022-11-13T03:18:30.229Z,6.79
2022-11-13T03:19:29.974Z,6.85
2022-11-13T03:20:29.981Z,6.87
2022-11-13T03:21:29.979Z,6.78
2022-11-13T03:22:29.982Z,6.77
2022-11-13T03:23:30.118Z,6.79
2022-11-13T03:24:29.991Z,6.82
2022-11-13T03:25:29.994Z,6.77
2022-11-13T03:26:29.996Z,6.81
2022-11-13T03:27:30.005Z,6.72
2022-11-13T03:28:30.319Z,6.70
2022-11-13T03:29:30.003Z,6.72
2022-11-13T03:30:30.010Z,6.74
2022-11-13T03:31:30.005Z,6.69
2022-11-13T03:32:30.014Z,6.70
2022-11-13T03:33:30.032Z,6.67
2022-11-13T03:34:30.014Z,6.67
2022-11-13T03:35:32.482Z,6.59
2022-11-13T03:36:30.027Z,6.67
2022-11-13T03:37:30.023Z,6.67
2022-11-13T03:38:30.423Z,6.59
2022-11-13T03:39:30.141Z,6.52
2022-11-13T03:40:30.037Z,6.67
2022-11-13T03:41:30.043Z,6.64
2022-11-13T03:42:30.043Z,6.70
2022-11-13T03:43:30.046Z,6.63
2022-11-13T03:44:30.065Z,6.62
2022-11-13T03:45:30.049Z,6.66
2022-11-13T03:46:30.046Z,6.72
2022-11-13T03:47:30.048Z,6.59
2022-11-13T03:48:30.402Z,6.67
2022-11-13T03:49:30.054Z,6.62
2022-11-13T03:50:30.062Z,6.63
2022-11-13T03:51:30.066Z,6.59
2022-11-13T03:52:30.064Z,6.62
2022-11-13T03:53:30.065Z,6.57
2022-11-13T03:54:30.069Z,6.64
2022-11-13T03:55:30.183Z,6.59
2022-11-13T03:56:30.074Z,6.69
2022-11-13T03:57:30.082Z,6.78
2022-11-13T03:58:30.535Z,6.74
2022-11-13T03:59:30.087Z,6.78
2022-11-13T04:00:30.093Z,6.81
2022-11-13T04:01:30.122Z,6.78
2022-11-13T04:02:30.097Z,6.78
2022-11-13T04:03:30.101Z,6.81
2022-11-13T04:04:30.095Z,6.77
2022-11-13T04:05:30.099Z,6.85
2022-11-13T04:06:30.099Z,6.97
2022-11-13T04:07:30.115Z,6.88
2022-11-13T04:08:30.372Z,6.93
2022-11-13T04:09:30.110Z,6.92
2022-11-13T04:10:30.112Z,6.89
2022-11-13T04:11:30.237Z,6.95
2022-11-13T04:12:30.117Z,7.03
2022-11-13T04:13:30.129Z,7.02
2022-11-13T04:14:30.130Z,7.03
2022-11-13T04:15:30.137Z,7.15
2022-11-13T04:16:30.129Z,7.18
2022-11-13T04:17:30.132Z,7.24
2022-11-13T04:18:30.495Z,7.28
2022-11-13T04:19:30.147Z,7.23
2022-11-13T04:20:30.142Z,7.23
2022-11-13T04:21:30.143Z,7.23
2022-11-13T04:22:30.159Z,7.33
2022-11-13T04:23:30.154Z,7.23
2022-11-13T04:24:30.160Z,7.31
2022-11-13T04:25:30.156Z,7.21
2022-11-13T04:26:30.159Z,7.14
2022-11-13T04:27:30.291Z,7.07
2022-11-13T04:28:30.506Z,7.02
2022-11-13T04:29:30.173Z,6.96
2022-11-13T04:30:30.172Z,6.92
2022-11-13T04:31:30.182Z,6.96
2022-11-13T04:32:30.183Z,6.92
2022-11-13T04:33:30.190Z,6.93
2022-11-13T04:34:30.182Z,6.92
2022-11-13T04:35:30.184Z,6.88
2022-11-13T04:36:30.188Z,6.85
2022-11-13T04:37:30.195Z,6.93
2022-11-13T04:38:30.553Z,6.72
2022-11-13T04:39:30.198Z,6.78
2022-11-13T04:40:30.197Z,6.67
2022-11-13T04:41:30.208Z,6.67
2022-11-13T04:42:30.200Z,6.62
2022-11-13T04:43:30.332Z,6.59
2022-11-13T04:44:30.212Z,6.49
2022-11-13T04:45:30.216Z,6.66
2022-11-13T04:46:30.219Z,6.44
2022-11-13T04:47:30.222Z,6.60
2022-11-13T04:48:30.573Z,6.60
2022-11-13T04:49:30.228Z,6.60
2022-11-13T04:50:30.225Z,6.57
2022-11-13T04:51:30.227Z,6.56
2022-11-13T04:52:30.237Z,6.60
2022-11-13T04:53:30.238Z,6.56
2022-11-13T04:54:30.242Z,6.54
2022-11-13T04:55:30.246Z,6.48
2022-11-13T04:56:30.239Z,6.46
2022-11-13T04:57:30.250Z,6.49
2022-11-13T04:58:30.691Z,6.62
2022-11-13T04:59:30.362Z,6.62
2022-11-13T05:00:30.250Z,6.63
2022-11-13T05:01:30.409Z,6.60
2022-11-13T05:02:30.263Z,6.59
2022-11-13T05:03:30.265Z,6.60
2022-11-13T05:04:30.266Z,6.57
2022-11-13T05:05:30.277Z,6.63
2022-11-13T05:06:30.265Z,6.62
2022-11-13T05:07:30.276Z,6.60
2022-11-13T05:08:30.584Z,6.60
2022-11-13T05:09:30.277Z,6.62
2022-11-13T05:10:30.281Z,6.62
2022-11-13T05:11:30.290Z,6.59
2022-11-13T05:12:30.288Z,6.62
2022-11-13T05:13:30.284Z,6.62
2022-11-13T05:14:30.287Z,6.60
2022-11-13T05:15:30.407Z,6.72
2022-11-13T05:16:30.294Z,6.72
2022-11-13T05:17:30.293Z,6.74
2022-11-13T05:18:30.800Z,6.75
2022-11-13T05:19:30.298Z,6.89
2022-11-13T05:20:30.302Z,6.88
2022-11-13T05:21:30.302Z,6.88
2022-11-13T05:22:30.308Z,6.77
2022-11-13T05:23:30.316Z,6.70
2022-11-13T05:24:30.314Z,6.72
2022-11-13T05:25:30.322Z,6.81
2022-11-13T05:26:30.320Z,6.77
2022-11-13T05:27:30.319Z,6.70
2022-11-13T05:28:30.637Z,6.69
2022-11-13T05:29:30.332Z,6.57
2022-11-13T05:30:30.326Z,6.62
2022-11-13T05:31:30.447Z,6.72
2022-11-13T05:32:30.331Z,6.77
2022-11-13T05:33:30.344Z,6.75
2022-11-13T05:34:30.337Z,6.78
2022-11-13T05:35:30.342Z,6.74
2022-11-13T05:36:30.343Z,6.74
2022-11-13T05:37:30.349Z,6.67
2022-11-13T05:38:30.705Z,6.70
2022-11-13T05:39:30.351Z,6.77
2022-11-13T05:40:30.361Z,6.66
2022-11-13T05:41:30.365Z,6.67
2022-11-13T05:42:30.366Z,6.78
2022-11-13T05:43:30.362Z,6.74
2022-11-13T05:44:30.372Z,6.78
2022-11-13T05:45:30.368Z,6.77
2022-11-13T05:46:30.378Z,6.81
2022-11-13T05:47:30.494Z,6.75
2022-11-13T05:48:30.877Z,6.81
2022-11-13T05:49:30.384Z,6.78
2022-11-13T05:50:30.389Z,6.74
2022-11-13T05:51:30.390Z,6.78
2022-11-13T05:52:30.386Z,6.78
2022-11-13T05:53:30.388Z,6.78
2022-11-13T05:54:30.409Z,6.77
2022-11-13T05:55:30.395Z,6.77
2022-11-13T05:56:30.405Z,6.75
2022-11-13T05:57:30.399Z,6.74
2022-11-13T05:58:30.713Z,6.75
2022-11-13T05:59:30.410Z,6.70
2022-11-13T06:00:30.408Z,6.74
2022-11-13T06:01:30.483Z,6.79
2022-11-13T06:02:30.414Z,6.89
2022-11-13T06:03:30.442Z,6.87
2022-11-13T06:04:30.423Z,6.87
2022-11-13T06:05:30.430Z,6.81
2022-11-13T06:06:30.431Z,6.78
2022-11-13T06:07:30.434Z,6.81
2022-11-13T06:08:30.725Z,6.79
2022-11-13T06:09:30.432Z,6.79
2022-11-13T06:10:30.439Z,6.77
2022-11-13T06:11:30.443Z,6.78
2022-11-13T06:12:30.451Z,6.79
2022-11-13T06:13:30.449Z,6.75
2022-11-13T06:14:30.441Z,6.72
2022-11-13T06:15:30.454Z,6.69
2022-11-13T06:16:30.457Z,6.69
2022-11-13T06:17:30.455Z,6.67
2022-11-13T06:18:30.708Z,6.70
2022-11-13T06:19:30.577Z,6.74
2022-11-13T06:20:30.470Z,6.70
2022-11-13T06:21:30.468Z,6.78
2022-11-13T06:22:30.465Z,6.79
2022-11-13T06:23:30.474Z,6.82
2022-11-13T06:24:30.477Z,6.89
2022-11-13T06:25:30.472Z,6.72
2022-11-13T06:26:30.483Z,6.93
2022-11-13T06:27:30.484Z,6.87
2022-11-13T06:28:30.941Z,6.95
2022-11-13T06:29:30.490Z,6.95
2022-11-13T06:30:30.486Z,6.99
2022-11-13T06:31:30.491Z,6.99
2022-11-13T06:32:30.492Z,7.06
2022-11-13T06:33:30.493Z,7.10
2022-11-13T06:34:30.496Z,7.13
2022-11-13T06:35:30.616Z,7.06
2022-11-13T06:36:30.509Z,7.14
2022-11-13T06:37:34.638Z,7.17
2022-11-13T06:38:30.934Z,7.21
2022-11-13T06:39:30.516Z,7.24
2022-11-13T06:40:30.516Z,7.24
2022-11-13T06:41:30.516Z,7.24
2022-11-13T06:42:30.526Z,7.31
2022-11-13T06:43:30.519Z,7.33
2022-11-13T06:44:30.524Z,7.33
2022-11-13T06:45:30.526Z,7.36
2022-11-13T06:46:30.536Z,7.24
2022-11-13T06:47:30.532Z,7.33
2022-11-13T06:48:31.030Z,7.31
2022-11-13T06:49:30.537Z,7.33
2022-11-13T06:50:30.549Z,7.42
2022-11-13T06:51:30.674Z,7.42
2022-11-13T06:52:30.555Z,7.45
2022-11-13T06:53:30.552Z,7.43
2022-11-13T06:54:30.551Z,7.45
2022-11-13T06:55:30.562Z,7.40
2022-11-13T06:56:30.564Z,7.45
2022-11-13T06:57:30.561Z,7.40
2022-11-13T06:58:30.916Z,7.40
2022-11-13T06:59:30.566Z,7.53
2022-11-13T07:00:36.215Z,7.48
2022-11-13T07:01:30.609Z,7.53
2022-11-13T07:02:30.573Z,7.58
2022-11-13T07:03:30.585Z,7.66
2022-11-13T07:04:30.587Z,7.58
2022-11-13T07:05:30.586Z,7.61
2022-11-13T07:06:30.585Z,7.67
2022-11-13T07:07:30.703Z,7.73
2022-11-13T07:08:30.948Z,7.75
2022-11-13T07:09:30.604Z,7.72
2022-11-13T07:10:30.652Z,7.87
2022-11-13T07:11:30.609Z,7.88
2022-11-13T07:12:30.604Z,7.88
2022-11-13T07:13:30.608Z,7.77
2022-11-13T07:14:30.612Z,7.88
2022-11-13T07:15:30.624Z,7.95
2022-11-13T07:16:44.031Z,7.93
2022-11-13T07:17:30.628Z,7.94
2022-11-13T07:18:31.012Z,8.00
2022-11-13T07:19:30.626Z,7.98
2022-11-13T07:20:30.767Z,7.97
2022-11-13T07:21:30.633Z,7.97
2022-11-13T07:22:30.644Z,8.00
2022-11-13T07:23:30.755Z,7.90
2022-11-13T07:24:30.651Z,7.93
2022-11-13T07:25:30.656Z,7.95
2022-11-13T07:26:30.650Z,8.00
2022-11-13T07:27:30.656Z,7.94
2022-11-13T07:28:30.999Z,7.93
2022-11-13T07:29:30.665Z,8.00
2022-11-13T07:30:30.660Z,8.06
2022-11-13T07:31:30.667Z,7.93
2022-11-13T07:32:30.675Z,7.98
2022-11-13T07:33:30.680Z,7.88
2022-11-13T07:34:30.675Z,7.87
2022-11-13T07:35:30.687Z,7.75
2022-11-13T07:36:30.681Z,7.82
2022-11-13T07:37:30.686Z,7.79
2022-11-13T07:38:30.949Z,7.94
2022-11-13T07:39:30.816Z,7.91
2022-11-13T07:40:30.702Z,7.90
2022-11-13T07:41:30.700Z,7.90
2022-11-13T07:42:30.699Z,7.88
2022-11-13T07:43:30.705Z,7.91
2022-11-13T07:44:53.664Z,7.88
2022-11-13T07:45:30.719Z,7.90
2022-11-13T07:46:30.712Z,7.91
2022-11-13T07:47:30.717Z,7.90
2022-11-13T07:48:31.030Z,7.87
2022-11-13T07:49:30.725Z,7.90
2022-11-13T07:50:30.726Z,7.85
2022-11-13T07:51:30.736Z,7.85
2022-11-13T07:52:30.741Z,7.91
2022-11-13T07:53:30.745Z,7.87
2022-11-13T07:54:30.741Z,7.85
2022-11-13T07:55:30.856Z,7.88
2022-11-13T07:56:30.747Z,7.88
2022-11-13T07:57:30.757Z,7.75
2022-11-13T07:58:31.177Z,7.85
2022-11-13T07:59:30.762Z,7.85
2022-11-13T08:00:30.852Z,7.95
2022-11-13T08:21:41.629Z,8.13
2022-11-13T08:22:41.515Z,8.16
2022-11-13T08:23:41.512Z,8.20
2022-11-13T08:24:41.515Z,8.26
2022-11-13T08:25:41.519Z,8.20
2022-11-13T08:26:41.522Z,8.18
2022-11-13T08:27:41.535Z,8.16
2022-11-13T08:28:41.538Z,8.28
2022-11-13T08:29:41.535Z,8.24
2022-11-13T08:30:41.543Z,8.20
2022-11-13T08:31:41.542Z,8.24
2022-11-13T08:32:41.550Z,8.24
2022-11-13T08:33:41.555Z,8.28
2022-11-13T08:34:41.557Z,8.38
2022-11-13T08:35:41.563Z,8.36
2022-11-13T08:36:41.563Z,8.48
2022-11-13T08:37:41.592Z,8.42
2022-11-13T08:38:41.565Z,8.49
2022-11-13T08:39:41.567Z,8.48
2022-11-13T08:40:41.578Z,8.48
2022-11-13T08:41:41.582Z,8.55
2022-11-13T08:42:41.580Z,8.46
2022-11-13T08:43:41.590Z,8.51
2022-11-13T08:44:41.586Z,8.53
2022-11-13T08:45:41.588Z,8.53
2022-11-13T08:46:41.594Z,8.52
2022-11-13T08:47:41.596Z,8.48
2022-11-13T08:48:41.600Z,8.48
2022-11-13T08:49:41.610Z,8.44
2022-11-13T08:50:41.614Z,8.45
2022-11-13T08:51:41.610Z,8.41
2022-11-13T08:52:41.616Z,8.38
2022-11-13T08:53:41.743Z,8.44
2022-11-13T08:54:41.624Z,8.44
2022-11-13T08:55:41.637Z,8.42
2022-11-13T08:56:41.636Z,8.36
2022-11-13T08:57:41.635Z,8.37
2022-11-13T08:58:41.638Z,8.41
2022-11-13T08:59:41.649Z,8.37
2022-11-13T09:00:41.643Z,8.36
2022-11-13T09:01:41.652Z,8.37
2022-11-13T09:02:41.652Z,8.42
2022-11-13T09:03:41.694Z,8.45
2022-11-13T09:04:41.658Z,8.41
2022-11-13T09:05:41.664Z,8.38
2022-11-13T09:06:41.691Z,8.38
2022-11-13T09:07:41.679Z,8.41
2022-11-13T09:08:41.680Z,8.41
2022-11-13T09:09:41.804Z,8.52
2022-11-13T09:10:41.689Z,8.55
2022-11-13T09:11:41.687Z,8.58
2022-11-13T09:12:41.698Z,8.52
2022-11-13T09:13:45.066Z,8.45
2022-11-13T09:14:41.705Z,8.56
2022-11-13T09:15:41.700Z,8.61
2022-11-13T09:16:41.705Z,8.63
2022-11-13T09:17:41.714Z,8.64
2022-11-13T09:18:41.714Z,8.69
2022-11-13T09:19:41.717Z,8.60
2022-11-13T09:20:41.724Z,8.56
2022-11-13T09:21:41.723Z,8.63
2022-11-13T09:22:41.729Z,8.63
2022-11-13T09:23:41.738Z,8.55
2022-11-13T09:24:41.737Z,8.52
2022-11-13T09:25:41.858Z,8.46
2022-11-13T09:26:41.750Z,8.48
2022-11-13T09:27:41.755Z,8.49
2022-11-13T09:28:41.759Z,8.49
2022-11-13T09:29:41.760Z,8.55
2022-11-13T09:30:41.767Z,8.53
2022-11-13T09:31:41.763Z,8.49
2022-11-13T09:32:41.764Z,8.53
2022-11-13T09:33:41.777Z,8.51
2022-11-13T09:34:41.781Z,8.51
2022-11-13T09:35:41.778Z,8.51
2022-11-13T09:36:41.780Z,8.67
2022-11-13T09:37:41.793Z,8.63
2022-11-13T09:38:41.788Z,8.64
2022-11-13T09:39:41.801Z,8.64
2022-11-13T09:40:41.803Z,8.70
2022-11-13T09:41:41.926Z,8.70
2022-11-13T09:42:41.803Z,8.56
2022-11-13T09:43:41.810Z,8.73
2022-11-13T09:44:41.821Z,8.67
2022-11-13T09:45:41.826Z,8.70
2022-11-13T09:46:41.820Z,8.79
2022-11-13T09:47:41.824Z,8.71
2022-11-13T09:48:41.828Z,8.71
2022-11-13T09:49:41.839Z,8.78
2022-11-13T09:50:41.845Z,8.88
2022-11-13T09:51:41.848Z,8.88
2022-11-13T09:52:41.844Z,8.89
2022-11-13T09:53:41.857Z,8.97
2022-11-13T09:54:41.861Z,9.08
2022-11-13T09:55:41.864Z,9.00
2022-11-13T09:56:41.865Z,8.97
2022-11-13T09:57:41.981Z,9.11
2022-11-13T09:58:41.874Z,9.13
2022-11-13T09:59:41.869Z,9.11
2022-11-13T10:00:41.914Z,9.13
2022-11-13T10:01:41.880Z,9.21
2022-11-13T10:02:41.882Z,9.21
2022-11-13T10:04:41.890Z,9.29
2022-11-13T10:05:41.900Z,9.21
2022-11-13T10:06:41.966Z,9.31
2022-11-13T10:07:41.910Z,9.32
2022-11-13T10:08:41.915Z,9.23
2022-11-13T10:09:41.916Z,9.23
2022-11-13T10:10:41.923Z,9.23
2022-11-13T10:11:41.918Z,9.26
2022-11-13T10:12:41.923Z,9.28
2022-11-13T10:13:42.043Z,9.31
2022-11-13T10:14:41.933Z,9.39
2022-11-13T10:15:41.937Z,9.37
2022-11-13T10:16:41.939Z,9.36
2022-11-13T10:17:41.945Z,9.39
2022-11-13T10:18:41.956Z,9.26
2022-11-13T10:19:41.959Z,9.31
2022-11-13T10:20:41.963Z,9.32
2022-11-13T10:21:41.961Z,9.32
2022-11-13T10:22:41.967Z,9.37
2022-11-13T10:23:41.967Z,9.39
2022-11-13T10:24:41.979Z,9.36
2022-11-13T10:25:41.977Z,9.34
2022-11-13T10:26:41.990Z,9.37
2022-11-13T10:27:42.091Z,9.37
2022-11-13T10:28:51.039Z,9.36
2022-11-13T10:29:46.191Z,9.39
2022-11-13T10:30:42.014Z,9.31
2022-11-13T10:31:42.010Z,9.36
2022-11-13T10:32:42.013Z,9.31
2022-11-13T10:33:42.019Z,9.34
2022-11-13T10:34:42.015Z,9.41
2022-11-13T10:35:42.034Z,9.36
2022-11-13T10:36:42.023Z,9.37
2022-11-13T10:37:42.026Z,9.39
2022-11-13T10:38:42.039Z,9.39
2022-11-13T10:39:42.044Z,9.44
2022-11-13T10:40:42.058Z,9.48
2022-11-13T10:41:42.049Z,9.48
2022-11-13T10:42:42.063Z,9.48
2022-11-13T10:43:42.054Z,9.51
2022-11-13T10:44:42.058Z,9.54
2022-11-13T10:45:42.187Z,9.59
2022-11-13T10:46:42.066Z,9.50
2022-11-13T10:48:03.119Z,9.58
2022-11-13T10:48:42.081Z,9.46
2022-11-13T10:49:42.083Z,9.47
2022-11-13T10:50:42.088Z,9.48
2022-11-13T10:51:42.095Z,9.56
2022-11-13T10:52:42.096Z,9.51
2022-11-13T10:53:42.103Z,9.61
2022-11-13T10:54:42.107Z,9.58
2022-11-13T10:55:42.109Z,9.59
2022-11-13T10:56:42.108Z,9.59
2022-11-13T10:57:45.797Z,9.61
2022-11-13T10:58:42.118Z,9.66
2022-11-13T10:59:42.121Z,9.62
2022-11-13T11:00:42.174Z,9.72
2022-11-13T11:01:42.300Z,9.65
2022-11-13T11:02:42.141Z,9.73
2022-11-13T11:03:42.145Z,9.72
2022-11-13T11:04:42.143Z,9.64
2022-11-13T11:05:42.148Z,9.66
2022-11-13T11:07:17.911Z,9.72
2022-11-13T11:07:42.220Z,9.76
2022-11-13T11:08:42.158Z,9.73
2022-11-13T11:09:42.172Z,9.72
2022-11-13T11:10:42.168Z,9.74
2022-11-13T11:11:42.171Z,9.73
2022-11-13T11:12:42.175Z,9.80
2022-11-13T11:13:42.189Z,9.83
2022-11-13T11:14:42.184Z,9.87
2022-11-13T11:44:37.770Z,9.94
2022-11-13T11:45:37.666Z,9.92
2022-11-13T11:46:37.694Z,9.98
2022-11-13T11:47:37.671Z,9.94
2022-11-13T11:48:37.666Z,10.02
2022-11-13T11:49:37.672Z,10.05
2022-11-13T11:50:37.681Z,9.98
2022-11-13T11:51:37.683Z,10.07
2022-11-13T11:52:37.682Z,10.07
2022-11-13T11:53:37.698Z,10.07
2022-11-13T11:54:37.697Z,10.12
2022-11-13T11:55:37.700Z,10.05
2022-11-13T11:56:37.698Z,10.09
2022-11-13T11:57:37.701Z,10.07
2022-11-13T11:58:37.715Z,10.07
2022-11-13T11:59:37.717Z,10.16
2022-11-13T12:00:37.826Z,10.01
2022-11-13T12:01:37.724Z,10.01
2022-11-13T12:02:37.722Z,10.02
2022-11-13T12:03:37.732Z,10.02
2022-11-13T12:04:37.790Z,10.01
2022-11-13T12:05:37.810Z,10.01
2022-11-13T12:06:37.863Z,10.01
2022-11-13T12:07:37.745Z,10.10
2022-11-13T12:08:37.747Z,10.02
2022-11-13T12:09:37.757Z,10.15
2022-11-13T12:10:37.758Z,10.15
2022-11-13T12:11:37.767Z,10.09
2022-11-13T12:12:37.764Z,10.12
2022-11-13T12:13:37.769Z,10.13
2022-11-13T12:14:37.772Z,10.15
2022-11-13T12:15:37.778Z,10.15
2022-11-13T12:16:37.902Z,10.13
2022-11-13T12:17:37.795Z,10.07
2022-11-13T12:18:37.789Z,10.07
2022-11-13T12:19:37.795Z,10.09
2022-11-13T12:20:37.805Z,10.12
2022-11-13T12:21:37.810Z,10.10
2022-11-13T12:22:37.807Z,10.12
2022-11-13T12:23:37.812Z,10.10
2022-11-13T12:24:37.815Z,10.15
2022-11-13T12:25:37.827Z,10.12
2022-11-13T12:26:37.832Z,10.16
2022-11-13T12:27:37.836Z,10.20
2022-11-13T12:28:40.984Z,10.20
2022-11-13T12:29:37.839Z,10.23
2022-11-13T12:30:37.842Z,10.15
2022-11-13T12:31:37.846Z,10.15
2022-11-13T12:33:25.527Z,10.22
2022-11-13T12:34:25.406Z,10.17
2022-11-13T12:35:25.417Z,10.26
2022-11-13T12:36:25.423Z,10.15
2022-11-13T12:37:25.429Z,10.12
2022-11-13T12:38:25.591Z,10.15
2022-11-13T12:39:25.427Z,10.17
2022-11-13T12:40:25.438Z,10.15
2022-11-13T12:41:25.436Z,10.23
2022-11-13T12:42:25.444Z,10.12
2022-11-13T12:43:25.444Z,10.19
2022-11-13T12:44:25.459Z,10.15
2022-11-13T12:45:25.456Z,10.09
2022-11-13T12:46:25.469Z,10.10
2022-11-13T12:47:25.470Z,9.98
2022-11-13T12:48:25.532Z,10.01
2022-11-13T12:49:25.592Z,10.07
2022-11-13T12:50:31.419Z,10.02
2022-11-13T12:51:25.488Z,10.02
2022-11-13T12:52:25.492Z,9.98
2022-11-13T12:53:25.499Z,10.04
2022-11-13T12:54:25.502Z,10.05
2022-11-13T12:55:25.497Z,10.02
2022-11-13T12:56:25.501Z,10.12
2022-11-13T12:57:29.996Z,10.09
2022-11-13T12:58:25.852Z,10.05
2022-11-13T12:59:32.730Z,9.99
2022-11-13T13:00:25.521Z,10.04
2022-11-13T13:01:25.604Z,10.05
2022-11-13T13:02:25.537Z,10.01
2022-11-13T13:03:25.536Z,9.99
2022-11-13T13:04:25.544Z,10.09
2022-11-13T13:05:25.663Z,10.07
2022-11-13T13:06:25.545Z,10.09
2022-11-13T13:07:25.641Z,10.10
2022-11-13T13:08:25.829Z,10.07
2022-11-13T13:09:25.566Z,10.12
2022-11-13T13:10:25.563Z,10.05
2022-11-13T13:11:25.570Z,10.07
2022-11-13T13:12:25.575Z,10.01
2022-11-13T13:13:25.577Z,10.02
2022-11-13T13:14:25.588Z,10.05
2022-11-13T13:15:25.585Z,10.07
2022-11-13T13:16:25.610Z,10.04
2022-11-13T13:17:25.615Z,10.09
2022-11-13T13:18:25.774Z,10.13
2022-11-13T13:19:25.604Z,10.16
2022-11-13T13:20:25.609Z,10.12
2022-11-13T13:21:25.730Z,10.16
2022-11-13T13:22:25.617Z,10.16
2022-11-13T13:23:25.622Z,10.23
2022-11-13T13:24:25.636Z,10.25
2022-11-13T13:25:25.633Z,10.22
2022-11-13T13:26:25.633Z,10.25
2022-11-13T13:27:25.644Z,10.33
2022-11-13T13:28:25.806Z,10.30
2022-11-13T13:29:25.656Z,10.34
2022-11-13T13:30:25.675Z,10.37
2022-11-13T13:31:25.656Z,10.25
2022-11-13T13:32:25.661Z,10.31
2022-11-13T13:33:25.675Z,10.35
2022-11-13T13:34:25.676Z,10.31
2022-11-13T13:35:25.684Z,10.33
2022-11-13T13:36:25.688Z,10.34
2022-11-13T13:37:25.798Z,10.34
2022-11-13T13:38:25.754Z,10.33
2022-11-13T13:39:25.699Z,10.33
2022-11-13T13:40:25.699Z,10.30
2022-11-13T13:41:25.708Z,10.34
2022-11-13T14:36:50.792Z,10.15
2022-11-13T14:37:50.678Z,10.17
2022-11-13T14:38:52.344Z,10.10
2022-11-13T14:39:50.686Z,10.13
2022-11-13T14:40:50.682Z,10.13
2022-11-13T14:41:50.685Z,10.13
2022-11-13T14:42:50.688Z,10.12
2022-11-13T14:43:50.706Z,10.12
2022-11-13T14:44:50.696Z,10.13
2022-11-13T14:45:50.705Z,10.07
2022-11-13T14:46:50.709Z,10.13
2022-11-13T14:47:50.714Z,10.16
2022-11-13T14:48:50.717Z,10.13
2022-11-13T14:49:50.722Z,10.13
2022-11-13T14:50:50.726Z,10.13
2022-11-13T14:51:50.722Z,10.12
2022-11-13T14:52:50.840Z,10.16
2022-11-13T14:53:50.732Z,10.12
2022-11-13T14:55:14.117Z,10.07
2022-11-13T14:55:50.748Z,10.05
2022-11-13T14:56:50.751Z,10.16
2022-11-13T14:57:50.761Z,10.15
2022-11-13T14:58:50.757Z,10.10
2022-11-13T14:59:50.760Z,10.05